Time;durP1;ratioP1;P1;durP2;ratioP2;P2;SDS_P1;SDS_P2;PMS_P1;PMS_P2;Temp;Humidity;BMP_temperature;BMP_pressure;BME280_temperature;BME280_humidity;BME280_pressure;Samples;Min_cycle;Max_cycle;Signal;HPM_P1;HPM_P2
2022/01/11 00:01:30;;;;;;;;;;;2.20;99.90;;;;;;5053487;28;19975;-76
2022/01/11 00:03:56;;;;;;;;;;;2.00;99.90;;;;;;5052566;28;19920;-76
2022/01/11 00:08:59;;;;;;;;;;;2.40;99.90;;;;;;5053310;28;19921;-80
2022/01/11 00:11:25;;;;;;;;;;;2.80;99.90;;;;;;5052957;28;19947;-76
2022/01/11 00:13:51;;;;;;;;;;;2.30;99.90;;;;;;5053399;28;19920;-76
2022/01/11 00:16:16;;;;;;;;;;;0.50;99.90;;;;;;5053407;28;19924;-76
2022/01/11 00:18:42;;;;;;;;;;;0.50;99.90;;;;;;5053108;28;19975;-78
2022/01/11 00:21:07;;;;;;;;;;;0.50;99.90;;;;;;5052364;28;19984;-78
2022/01/11 00:25:59;;;;;;;;;;;0.50;99.90;;;;;;5052227;28;19928;-75
2022/01/11 00:28:25;;;;;;;;;;;0.50;99.90;;;;;;5053416;28;20380;-79
2022/01/11 00:30:51;;;;;;;;;;;1.00;99.90;;;;;;5053309;28;19920;-77
2022/01/11 00:33:35;;;;;;;;;;;0.50;99.90;;;;;;5052190;28;19927;-77
2022/01/11 00:36:03;;;;;;;;;;;0.40;99.90;;;;;;5053050;28;19920;-80
2022/01/11 00:38:30;;;;;;;;;;;0.50;99.90;;;;;;5052972;28;20425;-79
2022/01/11 00:40:57;;;;;;;;;;;1.10;99.90;;;;;;5052357;28;19921;-76
2022/01/11 00:43:23;;;;;;;;;;;0.50;99.90;;;;;;5052199;28;19921;-76
2022/01/11 00:45:49;;;;;;;;;;;1.20;99.90;;;;;;5053096;28;19927;-79
2022/01/11 00:48:15;;;;;;;;;;;1.30;99.90;;;;;;5052984;28;20319;-76
2022/01/11 00:50:41;;;;;;;;;;;0.50;99.90;;;;;;5051781;28;20375;-79
2022/01/11 00:53:08;;;;;;;;;;;0.70;99.90;;;;;;5052825;28;19927;-76
2022/01/11 00:55:34;;;;;;;;;;;0.60;99.90;;;;;;5053106;28;19920;-76
2022/01/11 00:58:02;;;;;;;;;;;0.40;99.90;;;;;;5054654;28;19921;-79
2022/01/11 01:00:29;;;;;;;;;;;0.90;99.90;;;;;;5056646;28;19931;-76
2022/01/11 01:02:55;;;;;;;;;;;0.50;99.90;;;;;;5055102;28;20285;-80
2022/01/11 01:05:21;;;;;;;;;;;1.90;99.90;;;;;;5055505;28;19928;-79
2022/01/11 01:07:47;;;;;;;;;;;1.80;99.90;;;;;;5055375;28;19984;-79
2022/01/11 01:10:25;;;;;;;;;;;0.40;99.90;;;;;;5056137;28;19928;-83
2022/01/11 01:12:55;;;;;;;;;;;0.40;99.90;;;;;;5056311;28;19920;-76
2022/01/11 01:15:22;;;;;;;;;;;0.40;99.90;;;;;;5056345;28;19928;-76
2022/01/11 01:17:47;;;;;;;;;;;1.40;99.90;;;;;;5055191;28;19921;-79
2022/01/11 01:20:13;;;;;;;;;;;0.40;99.90;;;;;;5055105;28;19921;-76
2022/01/11 01:22:39;;;;;;;;;;;0.40;99.90;;;;;;5056045;28;19920;-75
2022/01/11 01:25:05;;;;;;;;;;;0.40;99.90;;;;;;5056283;28;19920;-78
2022/01/11 01:27:30;;;;;;;;;;;0.40;99.90;;;;;;5055242;28;20280;-75
2022/01/11 01:29:56;;;;;;;;;;;1.70;99.90;;;;;;5056017;28;19920;-79
2022/01/11 01:32:23;;;;;;;;;;;1.70;99.90;;;;;;5055958;28;19968;-82
2022/01/11 01:34:49;;;;;;;;;;;0.40;99.90;;;;;;5054917;28;19921;-76
2022/01/11 01:37:15;;;;;;;;;;;0.60;99.90;;;;;;5055675;28;19921;-82
2022/01/11 01:39:42;;;;;;;;;;;0.40;99.90;;;;;;5055118;28;20261;-76
2022/01/11 01:42:11;;;;;;;;;;;1.70;99.90;;;;;;5055929;28;19925;-76
2022/01/11 01:44:37;;;;;;;;;;;0.30;99.90;;;;;;5055797;28;19928;-75
2022/01/11 01:47:03;;;;;;;;;;;0.30;99.90;;;;;;5054687;28;20284;-75
2022/01/11 01:49:30;;;;;;;;;;;0.30;99.90;;;;;;5055709;28;19921;-76
2022/01/11 01:51:55;;;;;;;;;;;0.90;99.90;;;;;;5055566;28;19920;-76
2022/01/11 01:54:23;;;;;;;;;;;0.80;99.90;;;;;;5055457;28;19927;-79
2022/01/11 01:56:48;;;;;;;;;;;2.00;99.90;;;;;;5054610;28;20422;-81
2022/01/11 01:59:14;;;;;;;;;;;0.40;99.90;;;;;;5055256;28;19971;-74
2022/01/11 02:01:45;;;;;;;;;;;0.20;99.90;;;;;;5053978;28;19921;-75
2022/01/11 02:04:11;;;;;;;;;;;0.20;99.90;;;;;;5054412;28;19920;-78
2022/01/11 02:06:37;;;;;;;;;;;1.70;99.90;;;;;;5054053;28;19990;-75
2022/01/11 02:09:03;;;;;;;;;;;1.80;99.90;;;;;;5055526;28;19920;-76
2022/01/11 02:11:30;;;;;;;;;;;0.10;99.90;;;;;;5055135;28;19991;-80
2022/01/11 02:13:56;;;;;;;;;;;0.20;99.90;;;;;;5054300;28;20007;-76
2022/01/11 02:16:22;;;;;;;;;;;0.10;99.90;;;;;;5054080;28;19979;-76
2022/01/11 02:18:49;;;;;;;;;;;0.10;99.90;;;;;;5054934;28;19929;-80
2022/01/11 02:21:14;;;;;;;;;;;0.10;99.90;;;;;;5054909;28;19972;-77
2022/01/11 02:23:40;;;;;;;;;;;1.30;99.90;;;;;;5055113;28;19982;-80
2022/01/11 02:26:06;;;;;;;;;;;0.10;99.90;;;;;;5055033;28;20287;-77
2022/01/11 02:28:32;;;;;;;;;;;2.00;99.90;;;;;;5054969;28;19928;-79
2022/01/11 02:30:58;;;;;;;;;;;-0.60;99.90;;;;;;5055072;28;19991;-76
2022/01/11 02:33:34;;;;;;;;;;;0.10;99.90;;;;;;5054722;28;19921;-78
2022/01/11 02:36:01;;;;;;;;;;;0.10;99.90;;;;;;5054606;28;19920;-81
2022/01/11 02:38:26;;;;;;;;;;;0.10;99.90;;;;;;5054778;28;20434;-78
2022/01/11 02:40:52;;;;;;;;;;;0.10;99.90;;;;;;5054817;28;19921;-76
2022/01/11 02:43:17;;;;;;;;;;;0.80;99.90;;;;;;5054761;28;19947;-75
2022/01/11 02:45:43;;;;;;;;;;;1.60;99.90;;;;;;5054567;28;20280;-76
2022/01/11 02:48:10;;;;;;;;;;;0.10;99.90;;;;;;5054436;28;19920;-76
2022/01/11 02:50:36;;;;;;;;;;;1.80;99.90;;;;;;5054452;28;19925;-76
2022/01/11 02:53:01;;;;;;;;;;;0.20;99.90;;;;;;5053327;28;20284;-75
2022/01/11 02:55:27;;;;;;;;;;;0.10;99.90;;;;;;5054566;28;19927;-76
2022/01/11 02:57:54;;;;;;;;;;;0.10;99.90;;;;;;5054521;28;19921;-75
2022/01/11 03:00:20;;;;;;;;;;;0.00;99.90;;;;;;5053074;28;20272;-76
2022/01/11 03:02:46;;;;;;;;;;;0.00;99.90;;;;;;5054239;28;19927;-79
2022/01/11 03:05:12;;;;;;;;;;;0.00;99.90;;;;;;5054090;28;20346;-80
2022/01/11 03:07:38;;;;;;;;;;;0.00;99.90;;;;;;5054396;28;19920;-75
2022/01/11 03:10:12;;;;;;;;;;;1.10;99.90;;;;;;5054298;28;19928;-78
2022/01/11 03:12:40;;;;;;;;;;;0.00;99.90;;;;;;5053227;28;20015;-78
2022/01/11 03:15:06;;;;;;;;;;;-0.30;99.90;;;;;;5054012;28;19920;-79
2022/01/11 03:17:32;;;;;;;;;;;0.00;99.90;;;;;;5053894;28;19990;-81
2022/01/11 03:19:57;;;;;;;;;;;1.30;99.90;;;;;;5052577;28;19932;-77
2022/01/11 03:22:23;;;;;;;;;;;-0.20;99.90;;;;;;5054021;28;19924;-80
2022/01/11 03:24:48;;;;;;;;;;;0.60;99.90;;;;;;5053144;28;20058;-76
2022/01/11 03:27:14;;;;;;;;;;;0.00;99.90;;;;;;5053987;28;19921;-75
2022/01/11 03:29:40;;;;;;;;;;;1.60;99.90;;;;;;5052954;28;20394;-76
2022/01/11 03:32:06;;;;;;;;;;;1.60;99.90;;;;;;5052669;28;19924;-79
2022/01/11 03:34:31;;;;;;;;;;;-0.10;99.90;;;;;;5053772;28;19920;-76
2022/01/11 03:36:58;;;;;;;;;;;-0.20;99.90;;;;;;5053571;28;19943;-81
2022/01/11 03:39:24;;;;;;;;;;;0.20;99.90;;;;;;5053892;28;19921;-75
2022/01/11 03:41:49;;;;;;;;;;;1.00;99.90;;;;;;5052567;28;19920;-75
2022/01/11 03:44:15;;;;;;;;;;;-0.20;99.90;;;;;;5053678;28;19990;-76
2022/01/11 03:46:40;;;;;;;;;;;1.30;99.90;;;;;;5053538;28;19927;-78
2022/01/11 03:49:06;;;;;;;;;;;1.60;99.90;;;;;;5053611;28;20322;-76
2022/01/11 03:51:35;;;;;;;;;;;1.10;99.90;;;;;;5053454;28;19920;-76
2022/01/11 03:54:08;;;;;;;;;;;1.80;99.90;;;;;;5052719;28;19927;-76
2022/01/11 03:56:34;;;;;;;;;;;1.20;99.90;;;;;;5053677;28;20353;-77
2022/01/11 03:59:01;;;;;;;;;;;-0.40;99.90;;;;;;5053465;28;19920;-75
2022/01/11 04:01:27;;;;;;;;;;;-0.30;99.90;;;;;;5053535;28;20367;-79
2022/01/11 04:03:52;;;;;;;;;;;0.70;99.90;;;;;;5053469;28;19928;-75
2022/01/11 04:06:18;;;;;;;;;;;1.40;99.90;;;;;;5053340;28;20362;-78
2022/01/11 04:08:45;;;;;;;;;;;-0.30;99.90;;;;;;5052622;28;19925;-79
2022/01/11 04:11:11;;;;;;;;;;;1.50;99.90;;;;;;5053284;28;19943;-80
2022/01/11 04:13:37;;;;;;;;;;;-0.30;99.90;;;;;;5053398;28;20426;-76
2022/01/11 04:16:03;;;;;;;;;;;-0.50;99.90;;;;;;5053277;28;20029;-76
2022/01/11 04:18:28;;;;;;;;;;;-0.40;99.90;;;;;;5053157;28;19987;-79
2022/01/11 04:20:54;;;;;;;;;;;-0.60;99.90;;;;;;5053153;28;19921;-80
2022/01/11 04:23:20;;;;;;;;;;;1.30;99.90;;;;;;5053409;28;19950;-76
2022/01/11 04:25:45;;;;;;;;;;;0.70;99.90;;;;;;5053422;28;19935;-75
2022/01/11 04:28:11;;;;;;;;;;;-0.50;99.90;;;;;;5051982;28;19920;-76
2022/01/11 04:30:37;;;;;;;;;;;-0.30;99.90;;;;;;5053307;28;19921;-76
2022/01/11 04:33:04;;;;;;;;;;;-0.60;99.90;;;;;;5055056;28;19978;-77
2022/01/11 04:35:30;;;;;;;;;;;0.50;99.90;;;;;;5056893;28;20341;-77
2022/01/11 04:37:56;;;;;;;;;;;-0.80;99.90;;;;;;5057120;28;19986;-75
2022/01/11 04:40:22;;;;;;;;;;;-1.00;99.90;;;;;;5057275;28;19974;-75
2022/01/11 04:42:47;;;;;;;;;;;-0.50;99.90;;;;;;5055888;28;19925;-77
2022/01/11 04:45:14;;;;;;;;;;;-0.50;99.90;;;;;;5056967;28;20371;-75
2022/01/11 04:47:40;;;;;;;;;;;-0.60;99.90;;;;;;5056742;28;19921;-80
2022/01/11 04:50:07;;;;;;;;;;;0.60;99.90;;;;;;5056824;28;19920;-77
2022/01/11 04:52:32;;;;;;;;;;;-0.60;99.90;;;;;;5056611;28;19966;-75
2022/01/11 04:54:58;;;;;;;;;;;-1.20;99.90;;;;;;5056655;28;20330;-75
2022/01/11 04:57:23;;;;;;;;;;;-0.50;99.90;;;;;;5056705;28;19927;-75
2022/01/11 04:59:49;;;;;;;;;;;1.10;99.90;;;;;;5055406;28;19977;-75
2022/01/11 05:02:14;;;;;;;;;;;1.50;99.90;;;;;;5056522;28;19974;-80
2022/01/11 05:04:40;;;;;;;;;;;-0.50;99.90;;;;;;5056556;28;19943;-76
2022/01/11 05:07:06;;;;;;;;;;;1.00;99.90;;;;;;5056389;28;19974;-75
2022/01/11 05:09:31;;;;;;;;;;;-0.40;99.90;;;;;;5056593;28;19927;-76
2022/01/11 05:11:57;;;;;;;;;;;0.20;99.90;;;;;;5056395;28;19982;-75
2022/01/11 05:14:22;;;;;;;;;;;-0.40;99.90;;;;;;5056343;28;20278;-75
2022/01/11 05:16:48;;;;;;;;;;;-0.20;99.90;;;;;;5056184;28;19924;-75
2022/01/11 05:19:13;;;;;;;;;;;-0.40;99.90;;;;;;5056143;28;19920;-75
2022/01/11 05:21:40;;;;;;;;;;;-0.40;99.90;;;;;;5055279;28;19928;-77
2022/01/11 05:24:06;;;;;;;;;;;-0.30;99.90;;;;;;5055004;28;19921;-76
2022/01/11 05:26:31;;;;;;;;;;;-0.40;99.90;;;;;;5055969;28;19928;-78
2022/01/11 05:28:58;;;;;;;;;;;1.20;99.90;;;;;;5056021;28;19927;-75
2022/01/11 05:31:24;;;;;;;;;;;1.30;99.90;;;;;;5055031;28;19921;-75
2022/01/11 05:33:50;;;;;;;;;;;1.00;99.90;;;;;;5056018;28;20299;-75
2022/01/11 05:36:16;;;;;;;;;;;-0.40;99.90;;;;;;5055854;28;19921;-80
2022/01/11 05:38:42;;;;;;;;;;;-0.40;99.90;;;;;;5054559;28;20338;-75
2022/01/11 05:41:07;;;;;;;;;;;1.20;99.90;;;;;;5056042;28;19975;-75
2022/01/11 05:43:35;;;;;;;;;;;-0.30;99.90;;;;;;5055541;28;19920;-75
2022/01/11 05:46:01;;;;;;;;;;;-0.30;99.90;;;;;;5038248;28;19920;-75
2022/01/11 05:48:27;;;;;;;;;;;-0.30;99.90;;;;;;5055689;28;19920;-77
2022/01/11 05:50:52;;;;;;;;;;;1.50;99.90;;;;;;5054702;28;19928;-79
2022/01/11 05:53:18;;;;;;;;;;;1.30;99.90;;;;;;5055545;28;19924;-74
2022/01/11 05:55:43;;;;;;;;;;;-0.20;99.90;;;;;;5054797;28;19924;-78
2022/01/11 05:58:09;;;;;;;;;;;-0.30;99.90;;;;;;5055476;28;19920;-76
2022/01/11 06:00:34;;;;;;;;;;;-0.40;99.90;;;;;;5055639;28;19920;-75
2022/01/11 06:03:00;;;;;;;;;;;-0.30;99.90;;;;;;5055421;28;19921;-75
2022/01/11 06:05:26;;;;;;;;;;;-0.30;99.90;;;;;;5055398;28;19928;-75
2022/01/11 06:07:51;;;;;;;;;;;-0.30;99.90;;;;;;5055303;28;20364;-76
2022/01/11 06:10:17;;;;;;;;;;;-0.30;99.90;;;;;;5054072;28;20471;-75
2022/01/11 06:12:43;;;;;;;;;;;-0.30;99.90;;;;;;5055438;28;19921;-76
2022/01/11 06:15:09;;;;;;;;;;;1.80;99.90;;;;;;5055194;28;20447;-76
2022/01/11 06:17:34;;;;;;;;;;;-0.30;99.90;;;;;;5055066;28;19921;-77
2022/01/11 06:20:00;;;;;;;;;;;0.50;99.90;;;;;;5054993;28;19960;-77
2022/01/11 06:22:26;;;;;;;;;;;-0.10;99.90;;;;;;5054925;28;19921;-75
2022/01/11 06:24:52;;;;;;;;;;;-0.20;99.90;;;;;;5054953;28;19928;-74
2022/01/11 06:27:17;;;;;;;;;;;0.80;99.90;;;;;;5055138;28;19928;-75
2022/01/11 06:29:43;;;;;;;;;;;0.90;99.90;;;;;;5054991;28;19920;-75
2022/01/11 06:32:09;;;;;;;;;;;0.60;99.90;;;;;;5053825;28;20368;-75
2022/01/11 06:34:34;;;;;;;;;;;0.90;99.90;;;;;;5054728;28;19921;-75
2022/01/11 06:37:00;;;;;;;;;;;1.10;99.90;;;;;;5054805;28;19920;-75
2022/01/11 06:39:26;;;;;;;;;;;0.20;99.90;;;;;;5054631;28;19971;-75
2022/01/11 06:41:52;;;;;;;;;;;1.90;99.90;;;;;;5053629;28;20361;-78
2022/01/11 06:44:18;;;;;;;;;;;-0.10;99.90;;;;;;5054973;28;19924;-75
2022/01/11 06:46:43;;;;;;;;;;;1.10;99.90;;;;;;5054558;28;19966;-79
2022/01/11 06:49:09;;;;;;;;;;;-0.10;99.90;;;;;;5054510;28;19920;-77
2022/01/11 06:51:35;;;;;;;;;;;-0.10;99.90;;;;;;5053204;28;20264;-75
2022/01/11 06:54:01;;;;;;;;;;;-0.10;99.90;;;;;;5054446;28;20046;-75
2022/01/11 06:56:26;;;;;;;;;;;-0.10;99.90;;;;;;5052536;28;19971;-74
2022/01/11 06:58:52;;;;;;;;;;;1.70;99.90;;;;;;5054443;28;19928;-79
2022/01/11 07:01:18;;;;;;;;;;;0.90;99.90;;;;;;5053141;28;20303;-75
2022/01/11 07:03:44;;;;;;;;;;;0.00;99.90;;;;;;5053094;28;19975;-74
2022/01/11 07:06:09;;;;;;;;;;;-0.10;99.90;;;;;;5053122;28;19971;-77
2022/01/11 07:08:35;;;;;;;;;;;1.60;99.90;;;;;;5053002;28;19927;-75
2022/01/11 07:11:01;;;;;;;;;;;0.00;99.90;;;;;;5053869;28;19921;-75
2022/01/11 07:13:26;;;;;;;;;;;-0.10;99.90;;;;;;5054191;28;19927;-78
2022/01/11 07:15:52;;;;;;;;;;;1.80;99.90;;;;;;5053298;28;20394;-76
2022/01/11 07:18:17;;;;;;;;;;;0.70;99.90;;;;;;5053948;28;19924;-78
2022/01/11 07:20:43;;;;;;;;;;;1.40;99.90;;;;;;5054061;28;19974;-78
2022/01/11 07:23:10;;;;;;;;;;;-0.10;99.90;;;;;;5053012;28;19970;-74
2022/01/11 07:25:36;;;;;;;;;;;1.80;99.90;;;;;;5052930;28;20002;-77
2022/01/11 07:28:02;;;;;;;;;;;0.30;99.90;;;;;;5052643;28;19920;-75
2022/01/11 07:30:28;;;;;;;;;;;-0.10;99.90;;;;;;5053826;28;19943;-74
2022/01/11 07:32:53;;;;;;;;;;;-0.10;99.90;;;;;;5053746;28;20439;-75
2022/01/11 07:35:19;;;;;;;;;;;-0.10;99.90;;;;;;5053544;28;19928;-75
2022/01/11 07:37:45;;;;;;;;;;;-0.40;99.90;;;;;;5052419;28;19921;-75
2022/01/11 07:40:11;;;;;;;;;;;-0.10;99.90;;;;;;5052729;28;19927;-78
2022/01/11 07:42:36;;;;;;;;;;;-1.50;99.90;;;;;;5053565;28;19921;-74
2022/01/11 07:45:02;;;;;;;;;;;0.00;99.90;;;;;;5053689;28;20382;-74
2022/01/11 07:47:28;;;;;;;;;;;0.00;99.90;;;;;;5052380;28;19931;-75
2022/01/11 07:49:53;;;;;;;;;;;-0.10;99.90;;;;;;5053693;28;19990;-77
2022/01/11 07:52:19;;;;;;;;;;;-0.10;99.90;;;;;;5053445;28;19920;-75
2022/01/11 07:54:44;;;;;;;;;;;-0.10;99.90;;;;;;5052557;28;19970;-75
2022/01/11 07:57:10;;;;;;;;;;;1.10;99.90;;;;;;5053452;28;19920;-75
2022/01/11 07:59:36;;;;;;;;;;;0.00;99.90;;;;;;5053191;28;19928;-75
2022/01/11 08:02:03;;;;;;;;;;;0.00;99.90;;;;;;5053582;28;19927;-75
2022/01/11 08:04:31;;;;;;;;;;;0.00;99.90;;;;;;5053437;28;20422;-75
2022/01/11 08:07:00;;;;;;;;;;;1.70;99.90;;;;;;5055174;28;20402;-78
2022/01/11 08:09:26;;;;;;;;;;;0.00;99.90;;;;;;5056543;28;19920;-77
2022/01/11 08:11:55;;;;;;;;;;;-0.80;99.90;;;;;;5057683;28;19982;-75
2022/01/11 08:14:21;;;;;;;;;;;0.00;99.90;;;;;;5056248;28;19972;-76
2022/01/11 08:16:58;;;;;;;;;;;0.00;99.90;;;;;;5057315;28;19960;-73
2022/01/11 08:19:25;;;;;;;;;;;0.00;99.90;;;;;;5057081;28;20453;-75
2022/01/11 08:21:54;;;;;;;;;;;1.80;99.90;;;;;;5057273;28;19927;-75
2022/01/11 08:24:22;;;;;;;;;;;0.10;99.90;;;;;;5057167;28;19921;-75
2022/01/11 08:26:48;;;;;;;;;;;-0.10;99.90;;;;;;5057082;28;19924;-75
2022/01/11 08:29:14;;;;;;;;;;;0.00;99.90;;;;;;5057219;28;20037;-73
2022/01/11 08:31:40;;;;;;;;;;;0.30;99.90;;;;;;5056993;28;20292;-76
2022/01/11 08:34:11;;;;;;;;;;;1.10;99.90;;;;;;5057061;28;19927;-76
2022/01/11 08:36:37;;;;;;;;;;;1.00;99.90;;;;;;5056048;28;19920;-74
2022/01/11 08:39:03;;;;;;;;;;;-0.40;99.90;;;;;;5056861;28;19986;-74
2022/01/11 08:41:29;;;;;;;;;;;0.20;99.90;;;;;;5056793;28;19963;-74
2022/01/11 08:43:54;;;;;;;;;;;0.20;99.90;;;;;;5057066;28;19921;-76
2022/01/11 08:46:20;;;;;;;;;;;0.20;99.90;;;;;;5056984;28;19920;-73
2022/01/11 08:48:45;;;;;;;;;;;1.60;99.90;;;;;;5056847;28;20015;-77
2022/01/11 08:51:11;;;;;;;;;;;0.20;99.90;;;;;;5056783;28;19942;-75
2022/01/11 08:53:36;;;;;;;;;;;0.20;99.90;;;;;;5056588;28;19968;-77
2022/01/11 08:56:03;;;;;;;;;;;1.50;99.90;;;;;;5038473;28;19921;-74
2022/01/11 08:58:29;;;;;;;;;;;0.30;99.90;;;;;;5050628;28;20333;-75
2022/01/11 09:00:55;;;;;;;;;;;0.30;99.90;;;;;;5056653;28;19920;-74
2022/01/11 09:03:23;;;;;;;;;;;1.40;99.90;;;;;;5055175;28;19921;-74
2022/01/11 09:05:49;;;;;;;;;;;0.30;99.90;;;;;;5055224;28;19932;-74
2022/01/11 09:08:14;;;;;;;;;;;2.10;99.90;;;;;;5055430;28;20415;-76
2022/01/11 09:10:40;;;;;;;;;;;0.40;99.90;;;;;;5056026;28;19960;-77
2022/01/11 09:13:06;;;;;;;;;;;0.40;99.90;;;;;;5056302;28;19921;-74
2022/01/11 09:15:32;;;;;;;;;;;1.40;99.90;;;;;;5055568;28;19928;-74
2022/01/11 09:17:58;;;;;;;;;;;-0.40;99.90;;;;;;5054345;28;19924;-76
2022/01/11 09:20:24;;;;;;;;;;;0.40;99.90;;;;;;5055178;28;19927;-77
2022/01/11 09:22:49;;;;;;;;;;;0.50;99.90;;;;;;5056129;28;20004;-73
2022/01/11 09:25:15;;;;;;;;;;;2.00;99.90;;;;;;5055195;28;19928;-75
2022/01/11 09:27:41;;;;;;;;;;;2.20;99.90;;;;;;5055909;28;19927;-73
2022/01/11 09:30:08;;;;;;;;;;;1.00;99.90;;;;;;5056024;28;20346;-74
2022/01/11 09:32:35;;;;;;;;;;;0.50;99.90;;;;;;5056001;28;19924;-74
2022/01/11 09:35:01;;;;;;;;;;;1.90;99.90;;;;;;5055894;28;19924;-78
2022/01/11 09:37:27;;;;;;;;;;;0.50;99.90;;;;;;5055840;28;19920;-74
2022/01/11 09:39:53;;;;;;;;;;;1.60;99.90;;;;;;5055771;28;19975;-73
2022/01/11 09:42:18;;;;;;;;;;;0.80;99.90;;;;;;5055034;28;20394;-74
2022/01/11 09:44:44;;;;;;;;;;;0.50;99.90;;;;;;5055894;28;20395;-74
2022/01/11 09:47:16;;;;;;;;;;;-1.00;99.90;;;;;;5055767;28;19970;-77
2022/01/11 09:49:42;;;;;;;;;;;0.60;99.90;;;;;;5055849;28;19967;-74
2022/01/11 09:52:09;;;;;;;;;;;1.70;99.90;;;;;;5055675;28;20406;-75
2022/01/11 09:54:38;;;;;;;;;;;1.00;99.90;;;;;;5055579;28;20023;-73
2022/01/11 09:57:06;;;;;;;;;;;0.60;99.90;;;;;;5054397;28;19928;-73
2022/01/11 09:59:32;;;;;;;;;;;1.10;99.90;;;;;;5055502;28;19928;-73
2022/01/11 10:01:58;;;;;;;;;;;1.50;99.90;;;;;;5055600;28;19925;-74
2022/01/11 10:04:25;;;;;;;;;;;2.70;99.90;;;;;;5054492;28;20034;-74
2022/01/11 10:06:59;;;;;;;;;;;1.60;99.90;;;;;;5055306;28;19921;-73
2022/01/11 10:09:26;;;;;;;;;;;0.70;99.90;;;;;;5054255;28;19920;-78
2022/01/11 10:11:52;;;;;;;;;;;0.40;99.90;;;;;;5037391;28;19921;-78
2022/01/11 10:14:18;;;;;;;;;;;0.70;99.90;;;;;;5055283;28;19924;-74
2022/01/11 10:16:44;;;;;;;;;;;0.80;99.90;;;;;;5055049;28;20331;-76
2022/01/11 10:19:20;;;;;;;;;;;2.70;99.90;;;;;;5053806;28;19920;-76
2022/01/11 10:21:47;;;;;;;;;;;0.80;99.90;;;;;;5054570;28;20273;-74
2022/01/11 10:24:33;;;;;;;;;;;0.80;99.90;;;;;;5053626;28;20402;-78
2022/01/11 10:27:03;;;;;;;;;;;0.90;99.90;;;;;;5055035;28;19947;-74
2022/01/11 10:29:36;;;;;;;;;;;0.90;99.90;;;;;;5054222;28;20023;-74
2022/01/11 10:32:11;;;;;;;;;;;0.90;99.90;;;;;;5053866;28;19927;-73
2022/01/11 10:34:37;;;;;;;;;;;0.90;99.90;;;;;;5054465;28;19927;-79
2022/01/11 10:37:03;;;;;;;;;;;1.20;99.90;;;;;;5054845;28;19921;-76
2022/01/11 10:39:29;;;;;;;;;;;0.90;99.90;;;;;;5054357;28;19920;-75
2022/01/11 10:41:56;;;;;;;;;;;1.00;99.90;;;;;;5054550;28;19927;-74
2022/01/11 10:44:42;;;;;;;;;;;3.00;99.90;;;;;;5054496;28;19921;-74
2022/01/11 10:47:08;;;;;;;;;;;1.00;99.90;;;;;;5054321;28;20319;-75
2022/01/11 10:49:36;;;;;;;;;;;1.30;99.90;;;;;;5054132;28;19927;-74
2022/01/11 10:52:28;;;;;;;;;;;1.00;99.90;;;;;;5054444;28;19966;-74
2022/01/11 10:54:55;;;;;;;;;;;1.00;99.90;;;;;;5053089;28;19928;-75
2022/01/11 10:57:23;;;;;;;;;;;1.00;99.90;;;;;;5054095;28;20395;-74
2022/01/11 11:00:07;;;;;;;;;;;1.10;99.90;;;;;;5053751;28;19928;-78
2022/01/11 11:02:38;;;;;;;;;;;1.10;99.90;;;;;;5054130;28;20011;-74
2022/01/11 11:05:11;;;;;;;;;;;1.10;99.90;;;;;;5054127;28;19999;-77
2022/01/11 11:07:39;;;;;;;;;;;1.10;99.90;;;;;;5053748;28;19920;-74
2022/01/11 11:10:05;;;;;;;;;;;1.10;99.90;;;;;;5053734;28;19943;-76
2022/01/11 11:12:32;;;;;;;;;;;1.10;99.90;;;;;;5035731;28;20363;-75
2022/01/11 11:15:02;;;;;;;;;;;1.20;99.90;;;;;;5069015;28;19974;-79
2022/01/11 11:17:43;;;;;;;;;;;1.20;99.90;;;;;;5053734;28;19928;-74
2022/01/11 11:20:11;;;;;;;;;;;1.20;99.90;;;;;;5053764;28;19921;-77
2022/01/11 11:22:40;;;;;;;;;;;1.20;99.90;;;;;;5053727;28;19972;-74
2022/01/11 11:25:07;;;;;;;;;;;1.20;99.90;;;;;;5053233;28;19921;-74
2022/01/11 11:27:34;;;;;;;;;;;1.20;99.90;;;;;;5053914;28;19932;-74
2022/01/11 11:30:01;;;;;;;;;;;1.20;99.90;;;;;;5053465;28;20368;-76
2022/01/11 11:32:28;;;;;;;;;;;1.20;99.90;;;;;;5052660;28;19943;-74
2022/01/11 11:34:55;;;;;;;;;;;1.20;99.90;;;;;;5053617;28;19925;-74
2022/01/11 11:37:25;;;;;;;;;;;1.20;99.90;;;;;;5053417;28;19927;-78
2022/01/11 11:40:13;;;;;;;;;;;1.20;99.90;;;;;;5053326;28;19943;-74
2022/01/11 11:42:40;;;;;;;;;;;1.20;99.90;;;;;;5053190;28;19921;-77
2022/01/11 11:45:16;;;;;;;;;;;1.30;99.90;;;;;;5053463;28;20007;-74
2022/01/11 11:47:44;;;;;;;;;;;1.30;99.90;;;;;;5052632;28;19921;-76
2022/01/11 11:50:13;;;;;;;;;;;1.40;99.90;;;;;;5053466;28;19927;-75
2022/01/11 11:52:44;;;;;;;;;;;1.50;99.90;;;;;;5053295;28;19921;-79
2022/01/11 11:55:15;;;;;;;;;;;1.50;99.90;;;;;;5053295;28;19920;-75
2022/01/11 11:57:43;;;;;;;;;;;1.60;99.90;;;;;;5053452;28;19964;-80
2022/01/11 12:00:11;;;;;;;;;;;1.70;99.90;;;;;;5053222;28;19927;-74
2022/01/11 12:02:39;;;;;;;;;;;1.70;99.90;;;;;;5053314;28;19921;-74
2022/01/11 12:05:07;;;;;;;;;;;1.80;99.90;;;;;;5053294;28;20380;-76
2022/01/11 12:07:41;;;;;;;;;;;1.80;99.90;;;;;;5068717;28;19944;-74
2022/01/11 12:10:11;;;;;;;;;;;1.90;99.90;;;;;;5053458;28;20003;-75
2022/01/11 12:12:41;;;;;;;;;;;1.90;99.90;;;;;;5053182;28;19920;-74
2022/01/11 12:15:23;;;;;;;;;;;2.00;99.90;;;;;;5051471;28;19927;-74
2022/01/11 12:17:55;;;;;;;;;;;2.00;99.90;;;;;;5052897;28;19994;-80
2022/01/11 12:20:40;;;;;;;;;;;2.10;99.90;;;;;;5053347;28;19966;-78
2022/01/11 12:23:07;;;;;;;;;;;2.10;99.90;;;;;;5052312;28;19971;-75
2022/01/11 12:25:38;;;;;;;;;;;3.40;99.90;;;;;;5052096;28;19921;-74
2022/01/11 12:28:06;;;;;;;;;;;2.20;99.90;;;;;;5053131;28;19921;-75
2022/01/11 12:30:32;;;;;;;;;;;2.60;99.90;;;;;;5053182;28;20399;-74
2022/01/11 12:33:10;;;;;;;;;;;2.30;99.90;;;;;;5053258;28;19948;-73
2022/01/11 12:35:53;;;;;;;;;;;2.30;99.90;;;;;;5053155;28;19972;-74
2022/01/11 12:38:19;;;;;;;;;;;2.40;99.90;;;;;;5053031;28;19928;-75
2022/01/11 12:40:47;;;;;;;;;;;2.50;99.90;;;;;;5051812;28;20277;-74
2022/01/11 12:43:35;;;;;;;;;;;2.70;99.90;;;;;;5052903;28;19924;-78
2022/01/11 12:46:05;;;;;;;;;;;2.80;99.90;;;;;;5053027;28;20011;-74
2022/01/11 12:48:48;;;;;;;;;;;3.00;99.90;;;;;;5052894;28;19924;-75
2022/01/11 12:51:24;;;;;;;;;;;3.10;99.90;;;;;;5052036;28;19928;-79
2022/01/11 12:54:07;;;;;;;;;;;3.20;99.90;;;;;;5054679;28;20016;-74
2022/01/11 12:56:35;;;;;;;;;;;3.30;99.90;;;;;;5056582;28;19927;-74
2022/01/11 12:59:02;;;;;;;;;;;3.30;99.90;;;;;;5038337;28;20019;-74
2022/01/11 13:01:28;;;;;;;;;;;3.30;99.90;;;;;;5056606;28;19921;-80
2022/01/11 13:03:56;;;;;;;;;;;4.40;99.90;;;;;;5055250;28;19921;-78
2022/01/11 13:06:23;;;;;;;;;;;3.30;99.90;;;;;;5056619;28;19927;-75
2022/01/11 13:08:59;;;;;;;;;;;3.30;99.90;;;;;;5056340;28;20011;-75
2022/01/11 13:11:25;;;;;;;;;;;3.30;99.90;;;;;;5056136;28;19967;-75
2022/01/11 13:14:17;;;;;;;;;;;3.30;99.90;;;;;;5055961;28;19971;-76
2022/01/11 13:16:43;;;;;;;;;;;3.30;99.90;;;;;;5056490;28;19921;-75
2022/01/11 13:19:13;;;;;;;;;;;3.30;99.90;;;;;;5056228;28;19924;-80
2022/01/11 13:21:40;;;;;;;;;;;3.40;99.90;;;;;;5056247;28;19974;-74
2022/01/11 13:24:40;;;;;;;;;;;3.40;99.90;;;;;;5056185;28;20342;-74
2022/01/11 13:26:59;;;;;;;;;;;3.30;99.90;;;;;;5055021;28;20302;-74
2022/01/11 13:29:27;;;;;;;;;;;3.40;99.90;;;;;;5056239;28;19924;-75
2022/01/11 13:31:53;;;;;;;;;;;3.30;99.90;;;;;;5055983;28;20295;-77
2022/01/11 13:34:22;;;;;;;;;;;3.30;99.90;;;;;;5054669;28;19982;-78
2022/01/11 13:36:52;;;;;;;;;;;3.30;99.90;;;;;;5055912;28;19938;-74
2022/01/11 13:39:21;;;;;;;;;;;3.50;99.90;;;;;;5055765;28;20308;-75
2022/01/11 13:42:06;;;;;;;;;;;3.30;99.90;;;;;;5055618;28;19927;-75
2022/01/11 13:44:37;;;;;;;;;;;3.30;99.90;;;;;;5055797;28;20287;-75
2022/01/11 13:47:04;;;;;;;;;;;3.30;99.90;;;;;;5055632;28;20311;-75
2022/01/11 13:49:34;;;;;;;;;;;3.30;99.90;;;;;;5055504;28;20013;-75
2022/01/11 13:52:02;;;;;;;;;;;3.40;99.90;;;;;;5054589;28;19925;-75
2022/01/11 13:54:34;;;;;;;;;;;3.30;99.90;;;;;;5055711;28;19928;-78
2022/01/11 13:57:02;;;;;;;;;;;3.20;99.90;;;;;;5054582;28;19921;-74
2022/01/11 13:59:29;;;;;;;;;;;3.20;99.90;;;;;;5055502;28;20350;-77
2022/01/11 14:02:03;;;;;;;;;;;3.20;99.90;;;;;;5055313;28;19959;-73
2022/01/11 14:04:33;;;;;;;;;;;3.20;99.90;;;;;;5054590;28;19925;-75
2022/01/11 14:07:09;;;;;;;;;;;3.20;99.90;;;;;;5055288;28;19932;-75
2022/01/11 14:09:37;;;;;;;;;;;3.20;99.90;;;;;;5055382;28;19920;-77
2022/01/11 14:12:07;;;;;;;;;;;3.20;99.90;;;;;;5054791;28;19928;-74
2022/01/11 14:14:34;;;;;;;;;;;3.10;99.90;;;;;;5054883;28;19920;-75
2022/01/11 14:17:14;;;;;;;;;;;3.20;99.90;;;;;;5055164;28;19928;-76
2022/01/11 14:19:48;;;;;;;;;;;3.10;99.90;;;;;;5054786;28;19920;-75
2022/01/11 14:22:15;;;;;;;;;;;3.20;99.90;;;;;;5053905;28;19974;-76
2022/01/11 14:24:55;;;;;;;;;;;3.20;99.90;;;;;;5055118;28;19921;-78
2022/01/11 14:27:23;;;;;;;;;;;3.20;99.90;;;;;;5054851;28;19921;-75
2022/01/11 14:29:56;;;;;;;;;;;3.20;99.90;;;;;;5054844;28;19920;-77
2022/01/11 14:32:23;;;;;;;;;;;3.10;99.90;;;;;;5054965;28;20350;-75
2022/01/11 14:34:56;;;;;;;;;;;3.10;99.90;;;;;;5055048;28;19966;-77
2022/01/11 14:37:22;;;;;;;;;;;3.20;99.90;;;;;;5054790;28;19927;-75